sensor_id;sensor_type;location;lat;lon;timestamp;P1;durP1;ratioP1;P2;durP2;ratioP2
6420;SDS011;3243;50.958;7.012;2023-06-24T00:00:21;10.63;;;7.90;;
6420;SDS011;3243;50.958;7.012;2023-06-24T00:02:48;9.53;;;8.53;;
6420;SDS011;3243;50.958;7.012;2023-06-24T00:05:17;8.53;;;7.63;;
6420;SDS011;3243;50.958;7.012;2023-06-24T00:07:44;12.63;;;8.30;;
6420;SDS011;3243;50.958;7.012;2023-06-24T00:10:12;8.63;;;7.73;;
6420;SDS011;3243;50.958;7.012;2023-06-24T00:12:42;8.30;;;7.50;;
6420;SDS011;3243;50.958;7.012;2023-06-24T00:15:09;10.87;;;8.27;;
6420;SDS011;3243;50.958;7.012;2023-06-24T00:17:36;10.83;;;8.50;;
6420;SDS011;3243;50.958;7.012;2023-06-24T00:20:04;11.13;;;8.30;;
6420;SDS011;3243;50.958;7.012;2023-06-24T00:22:33;10.20;;;7.83;;
6420;SDS011;3243;50.958;7.012;2023-06-24T00:25:00;10.83;;;7.50;;
6420;SDS011;3243;50.958;7.012;2023-06-24T00:27:27;9.90;;;8.43;;
6420;SDS011;3243;50.958;7.012;2023-06-24T00:29:54;11.47;;;8.47;;
6420;SDS011;3243;50.958;7.012;2023-06-24T00:32:21;9.60;;;8.33;;
6420;SDS011;3243;50.958;7.012;2023-06-24T00:34:48;9.73;;;8.13;;
6420;SDS011;3243;50.958;7.012;2023-06-24T00:37:16;10.13;;;7.80;;
6420;SDS011;3243;50.958;7.012;2023-06-24T00:39:43;9.98;;;7.95;;
6420;SDS011;3243;50.958;7.012;2023-06-24T00:42:10;8.90;;;8.00;;
6420;SDS011;3243;50.958;7.012;2023-06-24T00:44:37;11.57;;;7.73;;
6420;SDS011;3243;50.958;7.012;2023-06-24T00:47:05;8.40;;;7.37;;
6420;SDS011;3243;50.958;7.012;2023-06-24T00:49:34;11.73;;;8.43;;
6420;SDS011;3243;50.958;7.012;2023-06-24T00:52:01;10.73;;;7.53;;
6420;SDS011;3243;50.958;7.012;2023-06-24T00:54:28;8.17;;;7.37;;
6420;SDS011;3243;50.958;7.012;2023-06-24T00:56:57;9.43;;;7.80;;
6420;SDS011;3243;50.958;7.012;2023-06-24T00:59:28;8.77;;;7.63;;
6420;SDS011;3243;50.958;7.012;2023-06-24T01:01:57;8.30;;;7.50;;
6420;SDS011;3243;50.958;7.012;2023-06-24T01:04:27;8.97;;;7.97;;
6420;SDS011;3243;50.958;7.012;2023-06-24T01:06:54;8.43;;;7.50;;
6420;SDS011;3243;50.958;7.012;2023-06-24T01:09:23;9.57;;;7.33;;
6420;SDS011;3243;50.958;7.012;2023-06-24T01:11:50;10.10;;;7.87;;
6420;SDS011;3243;50.958;7.012;2023-06-24T01:14:17;9.30;;;7.53;;
6420;SDS011;3243;50.958;7.012;2023-06-24T01:16:51;9.10;;;7.00;;
6420;SDS011;3243;50.958;7.012;2023-06-24T01:22:33;9.30;;;7.30;;
6420;SDS011;3243;50.958;7.012;2023-06-24T01:33:08;8.93;;;7.30;;
6420;SDS011;3243;50.958;7.012;2023-06-24T01:35:39;7.67;;;6.90;;
6420;SDS011;3243;50.958;7.012;2023-06-24T01:38:10;8.80;;;7.90;;
6420;SDS011;3243;50.958;7.012;2023-06-24T01:40:47;8.83;;;7.70;;
6420;SDS011;3243;50.958;7.012;2023-06-24T01:43:15;9.03;;;7.07;;
6420;SDS011;3243;50.958;7.012;2023-06-24T01:45:45;8.80;;;7.40;;
6420;SDS011;3243;50.958;7.012;2023-06-24T01:48:18;8.67;;;7.50;;
6420;SDS011;3243;50.958;7.012;2023-06-24T01:51:00;8.50;;;7.60;;
6420;SDS011;3243;50.958;7.012;2023-06-24T01:53:31;9.80;;;8.27;;
6420;SDS011;3243;50.958;7.012;2023-06-24T01:56:02;11.40;;;7.67;;
6420;SDS011;3243;50.958;7.012;2023-06-24T01:58:31;9.53;;;7.53;;
6420;SDS011;3243;50.958;7.012;2023-06-24T02:01:01;8.67;;;7.67;;
6420;SDS011;3243;50.958;7.012;2023-06-24T02:03:28;8.70;;;7.77;;
6420;SDS011;3243;50.958;7.012;2023-06-24T02:05:58;8.93;;;7.90;;
6420;SDS011;3243;50.958;7.012;2023-06-24T02:08:28;9.47;;;7.80;;
6420;SDS011;3243;50.958;7.012;2023-06-24T02:10:59;9.07;;;7.20;;
6420;SDS011;3243;50.958;7.012;2023-06-24T02:13:28;9.00;;;7.93;;
6420;SDS011;3243;50.958;7.012;2023-06-24T02:15:59;10.33;;;8.10;;
6420;SDS011;3243;50.958;7.012;2023-06-24T02:18:29;9.87;;;8.73;;
6420;SDS011;3243;50.958;7.012;2023-06-24T02:20:56;10.50;;;8.70;;
6420;SDS011;3243;50.958;7.012;2023-06-24T02:23:23;10.33;;;8.43;;
6420;SDS011;3243;50.958;7.012;2023-06-24T02:25:50;8.70;;;7.50;;
6420;SDS011;3243;50.958;7.012;2023-06-24T02:28:17;9.67;;;8.67;;
6420;SDS011;3243;50.958;7.012;2023-06-24T02:30:44;11.87;;;8.70;;
6420;SDS011;3243;50.958;7.012;2023-06-24T02:33:12;12.70;;;8.60;;
6420;SDS011;3243;50.958;7.012;2023-06-24T02:35:39;10.30;;;9.20;;
6420;SDS011;3243;50.958;7.012;2023-06-24T02:38:07;11.77;;;8.27;;
6420;SDS011;3243;50.958;7.012;2023-06-24T02:40:35;8.77;;;7.87;;
6420;SDS011;3243;50.958;7.012;2023-06-24T02:43:02;8.83;;;7.93;;
6420;SDS011;3243;50.958;7.012;2023-06-24T02:45:29;10.70;;;8.60;;
6420;SDS011;3243;50.958;7.012;2023-06-24T02:47:56;11.07;;;8.90;;
6420;SDS011;3243;50.958;7.012;2023-06-24T02:50:23;9.90;;;7.80;;
6420;SDS011;3243;50.958;7.012;2023-06-24T02:52:53;10.20;;;8.30;;
6420;SDS011;3243;50.958;7.012;2023-06-24T02:55:20;9.87;;;8.50;;
6420;SDS011;3243;50.958;7.012;2023-06-24T02:57:47;11.80;;;8.67;;
6420;SDS011;3243;50.958;7.012;2023-06-24T03:00:15;10.07;;;8.53;;
6420;SDS011;3243;50.958;7.012;2023-06-24T03:02:43;11.33;;;9.00;;
6420;SDS011;3243;50.958;7.012;2023-06-24T03:05:11;9.40;;;8.37;;
6420;SDS011;3243;50.958;7.012;2023-06-24T03:07:38;12.27;;;8.43;;
6420;SDS011;3243;50.958;7.012;2023-06-24T03:10:05;10.03;;;7.93;;
6420;SDS011;3243;50.958;7.012;2023-06-24T03:12:32;10.00;;;8.33;;
6420;SDS011;3243;50.958;7.012;2023-06-24T03:14:59;9.97;;;8.77;;
6420;SDS011;3243;50.958;7.012;2023-06-24T03:17:29;12.17;;;8.70;;
6420;SDS011;3243;50.958;7.012;2023-06-24T03:19:56;10.43;;;8.03;;
6420;SDS011;3243;50.958;7.012;2023-06-24T03:22:23;9.33;;;7.70;;
6420;SDS011;3243;50.958;7.012;2023-06-24T03:24:50;12.17;;;8.97;;
6420;SDS011;3243;50.958;7.012;2023-06-24T03:27:19;10.00;;;8.20;;
6420;SDS011;3243;50.958;7.012;2023-06-24T03:29:46;9.90;;;8.70;;
6420;SDS011;3243;50.958;7.012;2023-06-24T03:32:13;8.67;;;7.77;;
6420;SDS011;3243;50.958;7.012;2023-06-24T03:34:39;10.13;;;8.30;;
6420;SDS011;3243;50.958;7.012;2023-06-24T03:37:06;11.80;;;8.83;;
6420;SDS011;3243;50.958;7.012;2023-06-24T03:39:33;10.40;;;8.30;;
6420;SDS011;3243;50.958;7.012;2023-06-24T03:42:00;9.03;;;8.13;;
6420;SDS011;3243;50.958;7.012;2023-06-24T03:44:27;9.77;;;8.53;;
6420;SDS011;3243;50.958;7.012;2023-06-24T03:46:54;9.53;;;8.50;;
6420;SDS011;3243;50.958;7.012;2023-06-24T03:49:21;9.40;;;8.37;;
6420;SDS011;3243;50.958;7.012;2023-06-24T03:51:48;10.33;;;9.00;;
6420;SDS011;3243;50.958;7.012;2023-06-24T03:54:15;10.50;;;9.03;;
6420;SDS011;3243;50.958;7.012;2023-06-24T03:56:42;10.17;;;8.63;;
6420;SDS011;3243;50.958;7.012;2023-06-24T03:59:09;11.53;;;8.33;;
6420;SDS011;3243;50.958;7.012;2023-06-24T04:01:36;10.03;;;8.77;;
6420;SDS011;3243;50.958;7.012;2023-06-24T04:04:03;9.80;;;8.40;;
6420;SDS011;3243;50.958;7.012;2023-06-24T04:06:30;10.77;;;8.73;;
6420;SDS011;3243;50.958;7.012;2023-06-24T04:08:58;9.53;;;8.23;;
6420;SDS011;3243;50.958;7.012;2023-06-24T04:11:25;13.33;;;8.90;;
6420;SDS011;3243;50.958;7.012;2023-06-24T04:13:52;11.53;;;8.70;;
6420;SDS011;3243;50.958;7.012;2023-06-24T04:16:19;9.57;;;8.57;;
6420;SDS011;3243;50.958;7.012;2023-06-24T04:18:46;9.90;;;8.80;;
6420;SDS011;3243;50.958;7.012;2023-06-24T04:21:13;13.00;;;8.97;;
6420;SDS011;3243;50.958;7.012;2023-06-24T04:23:40;9.67;;;8.67;;
6420;SDS011;3243;50.958;7.012;2023-06-24T04:26:07;10.10;;;7.80;;
6420;SDS011;3243;50.958;7.012;2023-06-24T04:28:34;11.90;;;8.00;;
6420;SDS011;3243;50.958;7.012;2023-06-24T04:31:01;11.53;;;7.83;;
6420;SDS011;3243;50.958;7.012;2023-06-24T04:33:28;10.53;;;8.00;;
6420;SDS011;3243;50.958;7.012;2023-06-24T04:35:56;11.03;;;8.87;;
6420;SDS011;3243;50.958;7.012;2023-06-24T04:38:24;8.90;;;7.80;;
6420;SDS011;3243;50.958;7.012;2023-06-24T04:40:51;7.90;;;7.10;;
6420;SDS011;3243;50.958;7.012;2023-06-24T04:43:19;10.63;;;8.37;;
6420;SDS011;3243;50.958;7.012;2023-06-24T04:45:46;8.83;;;7.13;;
6420;SDS011;3243;50.958;7.012;2023-06-24T04:48:13;9.30;;;7.90;;
6420;SDS011;3243;50.958;7.012;2023-06-24T04:50:39;9.40;;;7.63;;
6420;SDS011;3243;50.958;7.012;2023-06-24T04:53:07;10.00;;;7.90;;
6420;SDS011;3243;50.958;7.012;2023-06-24T04:55:34;10.67;;;8.00;;
6420;SDS011;3243;50.958;7.012;2023-06-24T04:58:01;9.70;;;8.03;;
6420;SDS011;3243;50.958;7.012;2023-06-24T05:00:28;8.57;;;7.67;;
6420;SDS011;3243;50.958;7.012;2023-06-24T05:02:55;14.50;;;7.80;;
6420;SDS011;3243;50.958;7.012;2023-06-24T05:05:22;13.07;;;8.20;;
6420;SDS011;3243;50.958;7.012;2023-06-24T05:07:49;11.80;;;8.20;;
6420;SDS011;3243;50.958;7.012;2023-06-24T05:10:16;7.87;;;7.00;;
6420;SDS011;3243;50.958;7.012;2023-06-24T05:12:43;9.17;;;8.17;;
6420;SDS011;3243;50.958;7.012;2023-06-24T05:15:10;8.53;;;7.47;;
6420;SDS011;3243;50.958;7.012;2023-06-24T05:17:37;9.97;;;7.20;;
6420;SDS011;3243;50.958;7.012;2023-06-24T05:20:04;9.05;;;7.60;;
6420;SDS011;3243;50.958;7.012;2023-06-24T05:22:31;7.45;;;6.53;;
6420;SDS011;3243;50.958;7.012;2023-06-24T05:24:58;8.03;;;6.10;;
6420;SDS011;3243;50.958;7.012;2023-06-24T05:27:25;7.25;;;5.80;;
6420;SDS011;3243;50.958;7.012;2023-06-24T05:29:52;6.10;;;5.50;;
6420;SDS011;3243;50.958;7.012;2023-06-24T05:32:18;7.95;;;5.80;;
6420;SDS011;3243;50.958;7.012;2023-06-24T05:34:46;7.60;;;5.78;;
6420;SDS011;3243;50.958;7.012;2023-06-24T05:37:13;7.38;;;5.32;;
6420;SDS011;3243;50.958;7.012;2023-06-24T05:39:40;6.20;;;5.60;;
6420;SDS011;3243;50.958;7.012;2023-06-24T05:42:08;6.35;;;5.00;;
6420;SDS011;3243;50.958;7.012;2023-06-24T05:44:34;5.90;;;5.30;;
6420;SDS011;3243;50.958;7.012;2023-06-24T05:47:01;9.07;;;5.40;;
6420;SDS011;3243;50.958;7.012;2023-06-24T05:49:29;9.45;;;5.28;;
6420;SDS011;3243;50.958;7.012;2023-06-24T05:51:56;7.32;;;5.75;;
6420;SDS011;3243;50.958;7.012;2023-06-24T05:54:23;7.22;;;5.25;;
6420;SDS011;3243;50.958;7.012;2023-06-24T05:56:50;6.60;;;5.03;;
6420;SDS011;3243;50.958;7.012;2023-06-24T05:59:17;5.72;;;5.20;;
6420;SDS011;3243;50.958;7.012;2023-06-24T06:01:44;5.68;;;5.10;;
6420;SDS011;3243;50.958;7.012;2023-06-24T06:04:11;8.27;;;5.18;;
6420;SDS011;3243;50.958;7.012;2023-06-24T06:06:38;6.47;;;4.88;;
6420;SDS011;3243;50.958;7.012;2023-06-24T06:09:05;6.97;;;4.88;;
6420;SDS011;3243;50.958;7.012;2023-06-24T06:11:32;7.28;;;5.80;;
6420;SDS011;3243;50.958;7.012;2023-06-24T06:13:59;5.68;;;4.78;;
6420;SDS011;3243;50.958;7.012;2023-06-24T06:16:26;9.05;;;6.22;;
6420;SDS011;3243;50.958;7.012;2023-06-24T06:18:54;5.60;;;4.88;;
6420;SDS011;3243;50.958;7.012;2023-06-24T06:21:21;6.18;;;5.07;;
6420;SDS011;3243;50.958;7.012;2023-06-24T06:23:48;7.57;;;5.75;;
6420;SDS011;3243;50.958;7.012;2023-06-24T06:26:15;7.13;;;5.63;;
6420;SDS011;3243;50.958;7.012;2023-06-24T06:28:42;5.57;;;4.50;;
6420;SDS011;3243;50.958;7.012;2023-06-24T06:31:09;7.13;;;5.03;;
6420;SDS011;3243;50.958;7.012;2023-06-24T06:33:36;8.70;;;5.43;;
6420;SDS011;3243;50.958;7.012;2023-06-24T06:36:02;5.47;;;4.95;;
6420;SDS011;3243;50.958;7.012;2023-06-24T06:38:29;5.85;;;5.13;;
6420;SDS011;3243;50.958;7.012;2023-06-24T06:40:56;10.38;;;5.30;;
6420;SDS011;3243;50.958;7.012;2023-06-24T06:43:23;8.60;;;5.20;;
6420;SDS011;3243;50.958;7.012;2023-06-24T06:45:50;9.50;;;6.68;;
6420;SDS011;3243;50.958;7.012;2023-06-24T06:48:17;5.88;;;5.05;;
6420;SDS011;3243;50.958;7.012;2023-06-24T06:50:44;8.85;;;6.70;;
6420;SDS011;3243;50.958;7.012;2023-06-24T06:53:11;8.00;;;6.25;;
6420;SDS011;3243;50.958;7.012;2023-06-24T06:55:38;7.57;;;6.32;;
6420;SDS011;3243;50.958;7.012;2023-06-24T06:58:05;9.50;;;7.43;;
6420;SDS011;3243;50.958;7.012;2023-06-24T07:00:32;10.05;;;6.20;;
6420;SDS011;3243;50.958;7.012;2023-06-24T07:02:59;8.50;;;6.25;;
6420;SDS011;3243;50.958;7.012;2023-06-24T07:05:26;11.00;;;7.85;;
6420;SDS011;3243;50.958;7.012;2023-06-24T07:07:52;11.25;;;7.80;;
6420;SDS011;3243;50.958;7.012;2023-06-24T07:10:20;11.77;;;8.02;;
6420;SDS011;3243;50.958;7.012;2023-06-24T07:12:46;8.30;;;7.25;;
6420;SDS011;3243;50.958;7.012;2023-06-24T07:15:14;8.45;;;7.13;;
6420;SDS011;3243;50.958;7.012;2023-06-24T07:17:40;12.60;;;7.70;;
6420;SDS011;3243;50.958;7.012;2023-06-24T07:20:08;8.65;;;7.50;;
6420;SDS011;3243;50.958;7.012;2023-06-24T07:22:35;9.15;;;7.78;;
6420;SDS011;3243;50.958;7.012;2023-06-24T07:25:02;10.68;;;8.40;;
6420;SDS011;3243;50.958;7.012;2023-06-24T07:27:29;10.70;;;8.45;;
6420;SDS011;3243;50.958;7.012;2023-06-24T07:29:56;14.95;;;7.95;;
6420;SDS011;3243;50.958;7.012;2023-06-24T07:32:23;10.65;;;7.72;;
6420;SDS011;3243;50.958;7.012;2023-06-24T07:34:49;11.05;;;8.00;;
6420;SDS011;3243;50.958;7.012;2023-06-24T07:37:17;9.90;;;7.60;;
6420;SDS011;3243;50.958;7.012;2023-06-24T07:39:50;12.32;;;8.57;;
6420;SDS011;3243;50.958;7.012;2023-06-24T07:42:17;10.88;;;8.68;;
6420;SDS011;3243;50.958;7.012;2023-06-24T07:44:47;9.65;;;8.05;;
6420;SDS011;3243;50.958;7.012;2023-06-24T07:47:16;10.48;;;8.13;;
6420;SDS011;3243;50.958;7.012;2023-06-24T07:49:44;8.48;;;7.10;;
6420;SDS011;3243;50.958;7.012;2023-06-24T07:52:11;9.05;;;7.13;;
6420;SDS011;3243;50.958;7.012;2023-06-24T07:54:37;10.10;;;8.05;;
6420;SDS011;3243;50.958;7.012;2023-06-24T07:57:04;9.68;;;7.45;;
6420;SDS011;3243;50.958;7.012;2023-06-24T07:59:31;10.73;;;8.30;;
6420;SDS011;3243;50.958;7.012;2023-06-24T08:01:58;8.23;;;6.80;;
6420;SDS011;3243;50.958;7.012;2023-06-24T08:04:25;7.80;;;6.00;;
6420;SDS011;3243;50.958;7.012;2023-06-24T08:06:52;8.13;;;6.15;;
6420;SDS011;3243;50.958;7.012;2023-06-24T08:09:20;8.95;;;6.57;;
6420;SDS011;3243;50.958;7.012;2023-06-24T08:11:46;8.43;;;6.45;;
6420;SDS011;3243;50.958;7.012;2023-06-24T08:14:13;8.93;;;7.30;;
6420;SDS011;3243;50.958;7.012;2023-06-24T08:16:41;7.75;;;6.95;;
6420;SDS011;3243;50.958;7.012;2023-06-24T08:19:07;9.10;;;7.05;;
6420;SDS011;3243;50.958;7.012;2023-06-24T08:21:34;11.43;;;7.60;;
6420;SDS011;3243;50.958;7.012;2023-06-24T08:24:01;12.00;;;7.13;;
6420;SDS011;3243;50.958;7.012;2023-06-24T08:26:28;10.30;;;6.53;;
6420;SDS011;3243;50.958;7.012;2023-06-24T08:28:55;9.20;;;6.80;;
6420;SDS011;3243;50.958;7.012;2023-06-24T08:31:25;9.18;;;6.63;;
6420;SDS011;3243;50.958;7.012;2023-06-24T08:33:52;9.68;;;6.32;;
6420;SDS011;3243;50.958;7.012;2023-06-24T08:36:25;9.05;;;6.70;;
6420;SDS011;3243;50.958;7.012;2023-06-24T08:38:53;8.90;;;6.57;;
6420;SDS011;3243;50.958;7.012;2023-06-24T08:41:20;7.60;;;5.90;;
6420;SDS011;3243;50.958;7.012;2023-06-24T08:43:47;8.20;;;6.43;;
6420;SDS011;3243;50.958;7.012;2023-06-24T08:46:14;9.00;;;6.50;;
6420;SDS011;3243;50.958;7.012;2023-06-24T08:48:45;10.70;;;6.47;;
6420;SDS011;3243;50.958;7.012;2023-06-24T08:51:14;9.23;;;6.50;;
6420;SDS011;3243;50.958;7.012;2023-06-24T08:53:46;10.30;;;6.93;;
6420;SDS011;3243;50.958;7.012;2023-06-24T08:56:15;11.20;;;6.80;;
6420;SDS011;3243;50.958;7.012;2023-06-24T08:58:42;8.77;;;5.93;;
6420;SDS011;3243;50.958;7.012;2023-06-24T09:01:09;9.02;;;6.50;;
6420;SDS011;3243;50.958;7.012;2023-06-24T09:03:36;8.32;;;5.93;;
6420;SDS011;3243;50.958;7.012;2023-06-24T09:06:04;14.30;;;7.05;;
6420;SDS011;3243;50.958;7.012;2023-06-24T09:08:31;7.93;;;6.13;;
6420;SDS011;3243;50.958;7.012;2023-06-24T09:10:59;9.43;;;6.00;;
6420;SDS011;3243;50.958;7.012;2023-06-24T09:13:35;9.73;;;6.43;;
6420;SDS011;3243;50.958;7.012;2023-06-24T09:16:12;8.55;;;5.57;;
6420;SDS011;3243;50.958;7.012;2023-06-24T09:18:40;6.55;;;5.28;;
6420;SDS011;3243;50.958;7.012;2023-06-24T09:21:07;8.57;;;6.18;;
6420;SDS011;3243;50.958;7.012;2023-06-24T09:23:37;7.40;;;6.05;;
6420;SDS011;3243;50.958;7.012;2023-06-24T09:26:05;7.93;;;6.05;;
6420;SDS011;3243;50.958;7.012;2023-06-24T09:28:35;9.88;;;6.45;;
6420;SDS011;3243;50.958;7.012;2023-06-24T09:31:09;7.07;;;5.75;;
6420;SDS011;3243;50.958;7.012;2023-06-24T09:33:45;9.57;;;6.65;;
6420;SDS011;3243;50.958;7.012;2023-06-24T09:36:16;7.70;;;5.35;;
6420;SDS011;3243;50.958;7.012;2023-06-24T09:38:43;9.32;;;6.05;;
6420;SDS011;3243;50.958;7.012;2023-06-24T09:41:11;8.70;;;5.68;;
6420;SDS011;3243;50.958;7.012;2023-06-24T09:43:41;8.68;;;5.93;;
6420;SDS011;3243;50.958;7.012;2023-06-24T09:46:11;8.13;;;5.93;;
6420;SDS011;3243;50.958;7.012;2023-06-24T09:48:38;6.68;;;5.28;;
6420;SDS011;3243;50.958;7.012;2023-06-24T09:51:05;8.93;;;6.20;;
6420;SDS011;3243;50.958;7.012;2023-06-24T09:53:35;9.13;;;6.30;;
6420;SDS011;3243;50.958;7.012;2023-06-24T09:56:03;8.00;;;5.50;;
6420;SDS011;3243;50.958;7.012;2023-06-24T09:58:32;6.15;;;4.63;;
6420;SDS011;3243;50.958;7.012;2023-06-24T10:01:01;9.40;;;5.60;;
6420;SDS011;3243;50.958;7.012;2023-06-24T10:03:34;7.35;;;5.13;;
6420;SDS011;3243;50.958;7.012;2023-06-24T10:06:03;16.67;;;7.50;;
6420;SDS011;3243;50.958;7.012;2023-06-24T10:08:31;14.40;;;8.20;;
6420;SDS011;3243;50.958;7.012;2023-06-24T10:10:59;8.65;;;5.50;;
6420;SDS011;3243;50.958;7.012;2023-06-24T10:13:28;7.68;;;4.90;;
6420;SDS011;3243;50.958;7.012;2023-06-24T10:15:56;8.15;;;5.03;;
6420;SDS011;3243;50.958;7.012;2023-06-24T10:21:25;8.40;;;5.07;;
6420;SDS011;3243;50.958;7.012;2023-06-24T10:27:04;8.18;;;5.22;;
6420;SDS011;3243;50.958;7.012;2023-06-24T10:29:35;8.93;;;4.50;;
6420;SDS011;3243;50.958;7.012;2023-06-24T10:32:03;9.23;;;4.63;;
6420;SDS011;3243;50.958;7.012;2023-06-24T10:37:10;9.85;;;4.55;;
6420;SDS011;3243;50.958;7.012;2023-06-24T10:39:39;8.55;;;4.63;;
6420;SDS011;3243;50.958;7.012;2023-06-24T10:44:56;4.75;;;3.78;;
6420;SDS011;3243;50.958;7.012;2023-06-24T10:47:24;6.70;;;4.60;;
6420;SDS011;3243;50.958;7.012;2023-06-24T10:49:52;4.60;;;4.05;;
6420;SDS011;3243;50.958;7.012;2023-06-24T10:52:19;4.55;;;3.85;;
6420;SDS011;3243;50.958;7.012;2023-06-24T10:54:50;4.97;;;4.03;;
6420;SDS011;3243;50.958;7.012;2023-06-24T10:57:25;7.85;;;4.47;;
6420;SDS011;3243;50.958;7.012;2023-06-24T10:59:54;6.55;;;4.35;;
6420;SDS011;3243;50.958;7.012;2023-06-24T11:02:25;9.85;;;4.53;;
6420;SDS011;3243;50.958;7.012;2023-06-24T11:07:22;5.00;;;4.10;;
6420;SDS011;3243;50.958;7.012;2023-06-24T11:12:18;5.00;;;4.30;;
6420;SDS011;3243;50.958;7.012;2023-06-24T11:14:49;4.72;;;4.10;;
6420;SDS011;3243;50.958;7.012;2023-06-24T11:17:16;3.90;;;3.58;;
6420;SDS011;3243;50.958;7.012;2023-06-24T11:19:43;6.45;;;4.00;;
6420;SDS011;3243;50.958;7.012;2023-06-24T11:22:10;5.43;;;3.80;;
6420;SDS011;3243;50.958;7.012;2023-06-24T11:24:37;7.88;;;3.72;;
6420;SDS011;3243;50.958;7.012;2023-06-24T11:27:05;5.25;;;3.85;;
6420;SDS011;3243;50.958;7.012;2023-06-24T11:29:33;4.75;;;4.13;;
6420;SDS011;3243;50.958;7.012;2023-06-24T11:32:01;4.15;;;3.75;;
6420;SDS011;3243;50.958;7.012;2023-06-24T11:34:29;4.05;;;3.58;;
6420;SDS011;3243;50.958;7.012;2023-06-24T11:36:56;4.15;;;3.70;;
6420;SDS011;3243;50.958;7.012;2023-06-24T11:39:27;6.43;;;4.10;;
6420;SDS011;3243;50.958;7.012;2023-06-24T11:41:54;4.63;;;3.67;;
6420;SDS011;3243;50.958;7.012;2023-06-24T11:44:24;4.80;;;3.80;;
6420;SDS011;3243;50.958;7.012;2023-06-24T11:46:51;7.03;;;3.42;;
6420;SDS011;3243;50.958;7.012;2023-06-24T11:49:18;5.05;;;3.75;;
6420;SDS011;3243;50.958;7.012;2023-06-24T11:51:49;4.55;;;3.33;;
6420;SDS011;3243;50.958;7.012;2023-06-24T11:54:17;4.53;;;3.40;;
6420;SDS011;3243;50.958;7.012;2023-06-24T11:56:51;7.85;;;3.92;;
6420;SDS011;3243;50.958;7.012;2023-06-24T11:59:20;6.32;;;3.47;;
6420;SDS011;3243;50.958;7.012;2023-06-24T12:01:54;3.80;;;3.40;;
6420;SDS011;3243;50.958;7.012;2023-06-24T12:04:30;5.50;;;3.53;;
6420;SDS011;3243;50.958;7.012;2023-06-24T12:06:58;4.72;;;4.00;;
6420;SDS011;3243;50.958;7.012;2023-06-24T12:09:25;5.78;;;4.03;;
6420;SDS011;3243;50.958;7.012;2023-06-24T12:11:52;5.90;;;3.70;;
6420;SDS011;3243;50.958;7.012;2023-06-24T12:14:19;5.53;;;4.13;;
6420;SDS011;3243;50.958;7.012;2023-06-24T12:16:46;6.35;;;4.20;;
6420;SDS011;3243;50.958;7.012;2023-06-24T12:19:13;4.65;;;4.10;;
6420;SDS011;3243;50.958;7.012;2023-06-24T12:21:40;6.80;;;3.60;;
6420;SDS011;3243;50.958;7.012;2023-06-24T12:24:07;4.10;;;3.53;;
6420;SDS011;3243;50.958;7.012;2023-06-24T12:26:34;7.00;;;3.80;;
6420;SDS011;3243;50.958;7.012;2023-06-24T12:29:03;5.65;;;4.13;;
6420;SDS011;3243;50.958;7.012;2023-06-24T12:31:30;13.43;;;4.20;;
6420;SDS011;3243;50.958;7.012;2023-06-24T12:33:57;4.95;;;3.72;;
6420;SDS011;3243;50.958;7.012;2023-06-24T12:36:25;6.90;;;3.90;;
6420;SDS011;3243;50.958;7.012;2023-06-24T12:38:51;5.97;;;4.05;;
6420;SDS011;3243;50.958;7.012;2023-06-24T12:41:18;5.30;;;4.13;;
6420;SDS011;3243;50.958;7.012;2023-06-24T12:43:45;4.00;;;3.40;;
6420;SDS011;3243;50.958;7.012;2023-06-24T12:46:12;6.35;;;4.05;;
6420;SDS011;3243;50.958;7.012;2023-06-24T12:48:39;5.80;;;4.43;;
6420;SDS011;3243;50.958;7.012;2023-06-24T12:51:06;5.15;;;3.67;;
6420;SDS011;3243;50.958;7.012;2023-06-24T12:53:33;5.85;;;4.10;;
6420;SDS011;3243;50.958;7.012;2023-06-24T12:56:00;6.40;;;4.03;;
6420;SDS011;3243;50.958;7.012;2023-06-24T12:58:26;7.25;;;3.88;;
6420;SDS011;3243;50.958;7.012;2023-06-24T13:00:54;5.38;;;3.80;;
6420;SDS011;3243;50.958;7.012;2023-06-24T13:03:20;7.68;;;4.47;;
6420;SDS011;3243;50.958;7.012;2023-06-24T13:05:47;5.03;;;4.00;;
6420;SDS011;3243;50.958;7.012;2023-06-24T13:08:14;6.68;;;4.43;;
6420;SDS011;3243;50.958;7.012;2023-06-24T13:10:41;6.57;;;4.30;;
6420;SDS011;3243;50.958;7.012;2023-06-24T13:13:08;5.60;;;4.18;;
6420;SDS011;3243;50.958;7.012;2023-06-24T13:15:35;6.25;;;3.85;;
6420;SDS011;3243;50.958;7.012;2023-06-24T13:18:03;5.25;;;3.67;;
6420;SDS011;3243;50.958;7.012;2023-06-24T13:20:30;4.40;;;4.00;;
6420;SDS011;3243;50.958;7.012;2023-06-24T13:22:57;6.50;;;4.18;;
6420;SDS011;3243;50.958;7.012;2023-06-24T13:25:24;5.72;;;3.78;;
6420;SDS011;3243;50.958;7.012;2023-06-24T13:27:50;5.68;;;4.00;;
6420;SDS011;3243;50.958;7.012;2023-06-24T13:30:18;6.32;;;4.10;;
6420;SDS011;3243;50.958;7.012;2023-06-24T13:32:45;5.63;;;4.82;;
6420;SDS011;3243;50.958;7.012;2023-06-24T13:35:12;9.68;;;4.55;;
6420;SDS011;3243;50.958;7.012;2023-06-24T13:37:39;6.15;;;4.20;;
6420;SDS011;3243;50.958;7.012;2023-06-24T13:40:07;5.20;;;4.07;;
6420;SDS011;3243;50.958;7.012;2023-06-24T13:42:34;4.50;;;4.00;;
6420;SDS011;3243;50.958;7.012;2023-06-24T13:45:01;5.47;;;4.32;;
6420;SDS011;3243;50.958;7.012;2023-06-24T13:47:28;5.00;;;4.07;;
6420;SDS011;3243;50.958;7.012;2023-06-24T13:49:55;6.40;;;4.70;;
6420;SDS011;3243;50.958;7.012;2023-06-24T13:52:23;6.28;;;4.43;;
6420;SDS011;3243;50.958;7.012;2023-06-24T13:54:50;5.25;;;4.53;;
6420;SDS011;3243;50.958;7.012;2023-06-24T13:57:18;4.97;;;4.00;;
6420;SDS011;3243;50.958;7.012;2023-06-24T13:59:45;4.93;;;3.88;;
6420;SDS011;3243;50.958;7.012;2023-06-24T14:02:12;5.47;;;4.57;;
6420;SDS011;3243;50.958;7.012;2023-06-24T14:04:39;4.40;;;3.60;;
6420;SDS011;3243;50.958;7.012;2023-06-24T14:07:06;7.22;;;4.45;;
6420;SDS011;3243;50.958;7.012;2023-06-24T14:09:34;5.43;;;4.32;;
6420;SDS011;3243;50.958;7.012;2023-06-24T14:12:01;6.78;;;4.10;;
6420;SDS011;3243;50.958;7.012;2023-06-24T14:14:28;5.18;;;4.00;;
6420;SDS011;3243;50.958;7.012;2023-06-24T14:16:55;8.13;;;3.85;;
6420;SDS011;3243;50.958;7.012;2023-06-24T14:19:21;6.10;;;3.90;;
6420;SDS011;3243;50.958;7.012;2023-06-24T14:21:51;4.40;;;4.00;;
6420;SDS011;3243;50.958;7.012;2023-06-24T14:24:18;4.53;;;3.35;;
6420;SDS011;3243;50.958;7.012;2023-06-24T14:26:45;6.88;;;3.60;;
6420;SDS011;3243;50.958;7.012;2023-06-24T14:29:15;5.30;;;3.85;;
6420;SDS011;3243;50.958;7.012;2023-06-24T14:31:42;4.38;;;3.80;;
6420;SDS011;3243;50.958;7.012;2023-06-24T14:34:09;5.43;;;3.85;;
6420;SDS011;3243;50.958;7.012;2023-06-24T14:36:36;5.55;;;3.42;;
6420;SDS011;3243;50.958;7.012;2023-06-24T14:39:03;4.75;;;3.25;;
6420;SDS011;3243;50.958;7.012;2023-06-24T14:41:30;5.00;;;3.45;;
6420;SDS011;3243;50.958;7.012;2023-06-24T14:43:58;10.88;;;6.55;;
6420;SDS011;3243;50.958;7.012;2023-06-24T14:46:24;4.93;;;4.07;;
6420;SDS011;3243;50.958;7.012;2023-06-24T14:48:51;6.20;;;4.22;;
6420;SDS011;3243;50.958;7.012;2023-06-24T14:51:18;4.97;;;3.60;;
6420;SDS011;3243;50.958;7.012;2023-06-24T14:53:45;5.00;;;3.45;;
6420;SDS011;3243;50.958;7.012;2023-06-24T14:56:12;4.38;;;3.40;;
6420;SDS011;3243;50.958;7.012;2023-06-24T14:58:39;3.92;;;3.53;;
6420;SDS011;3243;50.958;7.012;2023-06-24T15:01:06;4.18;;;3.35;;
6420;SDS011;3243;50.958;7.012;2023-06-24T15:03:33;3.90;;;3.30;;
6420;SDS011;3243;50.958;7.012;2023-06-24T15:06:00;3.50;;;3.17;;
6420;SDS011;3243;50.958;7.012;2023-06-24T15:08:27;4.18;;;3.20;;
6420;SDS011;3243;50.958;7.012;2023-06-24T15:10:53;3.25;;;2.85;;
6420;SDS011;3243;50.958;7.012;2023-06-24T15:13:20;6.53;;;4.72;;
6420;SDS011;3243;50.958;7.012;2023-06-24T15:15:47;5.28;;;3.50;;
6420;SDS011;3243;50.958;7.012;2023-06-24T15:18:15;5.47;;;3.33;;
6420;SDS011;3243;50.958;7.012;2023-06-24T15:20:42;3.38;;;2.92;;
6420;SDS011;3243;50.958;7.012;2023-06-24T15:23:09;6.32;;;3.00;;
6420;SDS011;3243;50.958;7.012;2023-06-24T15:25:35;4.63;;;3.40;;
6420;SDS011;3243;50.958;7.012;2023-06-24T15:28:03;4.00;;;3.03;;
6420;SDS011;3243;50.958;7.012;2023-06-24T15:30:29;3.85;;;2.90;;
6420;SDS011;3243;50.958;7.012;2023-06-24T15:32:56;8.80;;;5.38;;
6420;SDS011;3243;50.958;7.012;2023-06-24T15:35:24;4.68;;;3.80;;
6420;SDS011;3243;50.958;7.012;2023-06-24T15:37:50;3.22;;;2.85;;
6420;SDS011;3243;50.958;7.012;2023-06-24T15:40:17;2.92;;;2.42;;
6420;SDS011;3243;50.958;7.012;2023-06-24T15:42:44;3.17;;;2.88;;